Airfield :
LOGIN :

Register | Disclaimer

   EN    FR    IT 

 










Legend :    VFR   Marginal VFR   IFR   Intensive IFR   Very Intensive IFR
Visi :
Ceiling :
>= 8 km
>= 3000ft
5 to 8 km
1000 to 3000 ft
1500m to 5 km
500 to 1000 ft
800 to 1500m
200 to 500 ft
< 800m
< 200 ft
Symbols :   Thunderstorms  Fog  Heavy snow  Heavy precipitations  Wind > 20 kt
SIGMETs :     Misc.  Thunderstorms  Icing  Turbulence  Mountain Waves  Volcanic Ashes







- Airport Elevation : 499 ft
- IATA code : TLS
- Download approach charts


LFBO - Toulouse / Blagnac

CURRENT METAR :
  • 141830Z AUTO 28010KT 9999 -RA SCT010 BKN023 BKN033 10/09 Q1010 TEMPO BKN010 BKN025

EXPIRED METARs :
  • 141800Z AUTO 31008KT 270V340 4400 +RADZ BR FEW011 BKN017 BKN026 11/09 Q1010 TEMPO 5000 -SHRA BKN010 BKN025
  • 141730Z AUTO 26005KT 9999 FEW018 BKN029 BKN037 11/08 Q1010 TEMPO BKN010 BKN025
  • 141700Z AUTO 28008KT 9999 BKN023 OVC030 12/08 Q1010 NOSIG
  • 141630Z AUTO 26010KT 230V290 9999 BKN025 BKN074 12/08 Q1010 NOSIG
  • 141600Z AUTO 26013KT 9999 FEW004 SCT040 BKN066 12/08 Q1011 NOSIG

TAF TAF LFBO
Valid from the 14 at 18:00 until the 16 at 00:00 UTC


141700Z 1418/1524 26010KT 9999 BKN020 BKN033
PROB40
TEMPO 1418/1422 5000 -SHRA BKN010 BKN025
BECMG 1422/1424 27016KT BKN013
TEMPO 1503/1508 4000 RA BKN008 BKN020
BECMG 1509/1511 28018G30KT BKN020TCU
TEMPO 1510/1522 4000 SHRA SCT012 BKN025CB
BECMG 1521/1523 31012KT SCT025
ATIS : +33 5 62 74 66 36
No reported NOTAMs for that airfield.
4 SIGMETs reported for the Bordeaux FIR (LFBB) :
 
Severe turbulence
LFBB SIGMET 5 VALID 141700/142000 LFPW
LFBB BORDEAUX FIR/UIR SEV TURB OBS AT 1700Z N OF LINE N4630 W00130 - N4600 E00300 FL160/300 STNR NC=
Severe turbulence
LFBB SIGMET 4 VALID 141830/142000 LFPW
LFBB BORDEAUX FIR/UIR SEV TURB FCST WI N4600 E00300 - N4345 E00245 - N4545 E00200 - N4600 E00300 SFC/FL080 STNR NC=
Severe turbulence
LFBB SIGMET 3 VALID 141700/142000 LFPW
LFBB BORDEAUX FIR/UIR SEV TURB FCST W OF LINE N4300 W00115 - N4630 W00045 SFC/FL050 STNR NC=
Severe turbulence
LFBB SIGMET 2 VALID 141430/141830 LFPW
LFBB BORDEAUX FIR/UIR SEV TURB FCST WI N4630 E00300 - N4345 E00245 - N4600 E00130 - N4630 E00300 SFC/FL080 STNR INTSF=



MET'MAP, your aeronautical weather chart ! - Copyright ORBIFLY December 2007 - Disclaimer

ORBIFLY MET'MAP TEAM :

Programming & Development : Alexandra Zaïnal
Concept & Development : Baudouin d'Aumeries
Co-Development & Prog : Marc-Olivier Méhu
Technical & hardware support : Manuel Goepfert

Contact : metmap@orbifly.com




SOURCES & CREDITS :

   NOAA